createdAt,value
2022-10-14T00:01:15.562Z,23.63
2022-10-14T00:03:43.087Z,23.67
2022-10-14T00:06:13.166Z,23.60
2022-10-14T00:08:40.468Z,22.67
2022-10-14T00:11:17.342Z,24.20
2022-10-14T00:13:44.040Z,24.57
2022-10-14T00:16:23.204Z,23.10
2022-10-14T00:18:50.756Z,23.33
2022-10-14T00:21:17.954Z,23.97
2022-10-14T00:23:45.324Z,24.50
2022-10-14T00:26:27.005Z,23.80
2022-10-14T00:28:54.187Z,24.40
2022-10-14T00:31:21.619Z,26.00
2022-10-14T00:33:48.899Z,24.13
2022-10-14T00:36:18.375Z,22.33
2022-10-14T00:38:45.719Z,21.90
2022-10-14T00:41:16.413Z,24.00
2022-10-14T00:44:08.452Z,23.27
2022-10-14T00:46:37.753Z,23.50
2022-10-14T00:49:09.126Z,22.40
2022-10-14T00:51:37.024Z,20.40
2022-10-14T00:54:04.572Z,20.90
2022-10-14T00:56:32.143Z,21.60
2022-10-14T00:59:02.231Z,20.90
2022-10-14T01:01:28.886Z,21.60
2022-10-14T01:03:55.617Z,21.20
2022-10-14T01:07:02.255Z,22.67
2022-10-14T01:09:36.069Z,22.80
2022-10-14T01:12:27.917Z,21.10
2022-10-14T01:15:04.930Z,22.03
2022-10-14T01:17:53.434Z,20.27
2022-10-14T01:20:28.926Z,21.87
2022-10-14T01:23:19.817Z,20.13
2022-10-14T01:26:17.535Z,22.50
2022-10-14T01:28:55.805Z,20.30
2022-10-14T01:31:28.167Z,20.33
2022-10-14T01:33:58.322Z,22.43
2022-10-14T01:36:33.869Z,20.90
2022-10-14T01:39:17.830Z,21.17
2022-10-14T01:42:17.418Z,20.10
2022-10-14T01:44:53.297Z,20.00
2022-10-14T01:47:21.880Z,21.70
2022-10-14T01:49:57.307Z,19.47
2022-10-14T01:52:28.465Z,21.30
2022-10-14T01:54:59.959Z,19.80
2022-10-14T01:57:29.645Z,20.97
2022-10-14T01:59:58.205Z,21.27
2022-10-14T02:02:25.702Z,20.63
2022-10-14T02:04:52.417Z,20.70
2022-10-14T02:07:34.439Z,21.47
2022-10-14T02:10:06.990Z,21.00
2022-10-14T02:12:45.714Z,20.50
2022-10-14T02:15:33.410Z,20.80
2022-10-14T02:18:09.881Z,21.73
2022-10-14T02:20:42.422Z,21.87
2022-10-14T02:23:39.562Z,20.60
2022-10-14T02:26:08.184Z,21.57
2022-10-14T02:28:37.094Z,21.63
2022-10-14T02:31:08.115Z,23.30
2022-10-14T02:33:40.589Z,21.20
2022-10-14T02:36:11.484Z,21.37
2022-10-14T02:38:40.269Z,22.13
2022-10-14T02:41:14.462Z,21.27
2022-10-14T02:43:41.032Z,22.17
2022-10-14T02:46:08.337Z,21.23
2022-10-14T02:48:34.965Z,22.53
2022-10-14T02:51:02.857Z,21.80
2022-10-14T02:53:30.627Z,20.57
2022-10-14T02:55:58.441Z,21.10
2022-10-14T02:58:25.594Z,19.83
2022-10-14T03:00:52.794Z,20.43
2022-10-14T03:03:20.182Z,23.20
2022-10-14T03:05:47.027Z,21.47
2022-10-14T03:08:15.359Z,20.67
2022-10-14T03:10:46.337Z,20.40
2022-10-14T03:13:12.869Z,19.57
2022-10-14T03:15:42.980Z,22.60
2022-10-14T03:18:10.987Z,21.97
2022-10-14T03:20:45.037Z,21.30
2022-10-14T03:23:14.563Z,21.00
2022-10-14T03:25:45.412Z,21.57
2022-10-14T03:28:18.162Z,23.30
2022-10-14T03:31:01.827Z,24.57
2022-10-14T03:33:41.802Z,23.90
2022-10-14T03:36:12.671Z,22.80
2022-10-14T03:38:45.667Z,22.57
2022-10-14T03:41:22.208Z,24.10
2022-10-14T03:43:48.841Z,22.97
2022-10-14T03:46:16.761Z,24.90
2022-10-14T03:48:43.434Z,25.90
2022-10-14T03:51:10.115Z,24.87
2022-10-14T03:53:36.986Z,25.10
2022-10-14T03:56:04.849Z,27.63
2022-10-14T03:58:32.638Z,25.20
2022-10-14T04:01:04.550Z,27.80
2022-10-14T04:03:51.935Z,28.67
2022-10-14T04:06:18.503Z,28.40
2022-10-14T04:08:45.118Z,28.77
2022-10-14T04:11:21.166Z,27.40
2022-10-14T04:13:49.794Z,29.67
2022-10-14T04:16:16.384Z,29.13
2022-10-14T04:18:58.459Z,29.13
2022-10-14T04:21:25.267Z,29.60
2022-10-14T04:23:52.896Z,29.63
2022-10-14T04:26:31.235Z,31.20
2022-10-14T04:28:58.442Z,30.60
2022-10-14T04:31:33.869Z,30.13
2022-10-14T04:34:02.738Z,30.10
2022-10-14T04:36:34.919Z,29.50
2022-10-14T04:39:03.645Z,31.13
2022-10-14T04:41:30.232Z,33.20
2022-10-14T04:44:00.320Z,30.40
2022-10-14T04:46:32.559Z,29.47
2022-10-14T04:49:00.054Z,30.23
2022-10-14T04:51:31.799Z,29.10
2022-10-14T04:54:24.948Z,29.40
2022-10-14T04:56:55.570Z,31.10
2022-10-14T04:59:22.345Z,30.67
2022-10-14T05:01:57.586Z,32.07
2022-10-14T05:04:32.662Z,29.70
2022-10-14T05:07:00.567Z,29.70
2022-10-14T05:09:28.241Z,31.13
2022-10-14T05:11:55.070Z,31.07
2022-10-14T05:14:29.733Z,31.33
2022-10-14T05:17:08.045Z,32.07
2022-10-14T05:19:35.275Z,31.87
2022-10-14T05:22:01.949Z,34.10
2022-10-14T05:24:36.316Z,31.87
2022-10-14T05:27:03.430Z,30.53
2022-10-14T05:29:30.992Z,32.60
2022-10-14T05:31:58.993Z,33.27
2022-10-14T05:34:37.384Z,32.33
2022-10-14T05:37:07.072Z,32.17
2022-10-14T05:39:41.086Z,32.57
2022-10-14T05:42:07.811Z,31.77
2022-10-14T05:44:35.073Z,31.00
2022-10-14T05:47:02.843Z,32.73
2022-10-14T05:49:29.443Z,32.70
2022-10-14T05:51:57.915Z,31.40
2022-10-14T05:54:24.883Z,31.67
2022-10-14T05:56:54.067Z,31.80
2022-10-14T05:59:23.014Z,32.40
2022-10-14T06:01:49.529Z,30.90
2022-10-14T06:04:20.393Z,30.97
2022-10-14T06:06:47.035Z,31.63
2022-10-14T06:09:15.296Z,29.50
2022-10-14T06:11:42.315Z,30.77
2022-10-14T06:14:09.302Z,31.30
2022-10-14T06:16:36.275Z,30.40
2022-10-14T06:19:05.598Z,31.13
2022-10-14T06:21:32.565Z,32.10
2022-10-14T06:23:59.340Z,29.97
2022-10-14T06:26:26.004Z,31.10
2022-10-14T06:28:52.586Z,29.10
2022-10-14T06:31:19.334Z,29.57
2022-10-14T06:33:45.906Z,29.10
2022-10-14T06:36:12.850Z,30.23
2022-10-14T06:38:40.409Z,28.60
2022-10-14T06:41:07.009Z,31.50
2022-10-14T06:43:35.526Z,31.50
2022-10-14T06:46:03.581Z,28.67
2022-10-14T06:48:30.209Z,28.80
2022-10-14T06:51:01.096Z,28.33
2022-10-14T06:53:28.707Z,29.87
2022-10-14T06:56:03.720Z,26.33
2022-10-14T06:58:31.228Z,27.30
2022-10-14T07:01:03.054Z,27.70
2022-10-14T07:03:30.422Z,28.23
2022-10-14T07:05:57.126Z,28.07
2022-10-14T07:08:23.991Z,28.57
2022-10-14T07:10:50.530Z,26.67
2022-10-14T07:13:17.046Z,26.93
2022-10-14T07:15:47.952Z,27.07
2022-10-14T07:18:14.779Z,27.07
2022-10-14T07:20:41.452Z,26.63
2022-10-14T07:23:08.008Z,27.80
2022-10-14T07:25:34.539Z,26.20
2022-10-14T07:28:01.201Z,27.93
2022-10-14T07:30:27.739Z,28.40
2022-10-14T07:32:55.210Z,27.70
2022-10-14T07:35:21.970Z,27.30
2022-10-14T07:37:50.400Z,25.67
2022-10-14T07:40:17.157Z,27.20
2022-10-14T07:42:43.657Z,27.37
2022-10-14T07:45:15.918Z,27.00
2022-10-14T07:47:43.849Z,24.17
2022-10-14T07:50:11.494Z,26.23
2022-10-14T07:52:38.532Z,24.73
2022-10-14T07:55:06.050Z,22.47
2022-10-14T07:57:33.221Z,20.90
2022-10-14T08:00:00.292Z,22.20
2022-10-14T08:02:26.885Z,21.33
2022-10-14T08:05:04.160Z,20.63
2022-10-14T08:07:39.900Z,23.50
2022-10-14T08:10:07.035Z,22.50
2022-10-14T08:12:33.731Z,22.67
2022-10-14T08:15:00.382Z,21.50
2022-10-14T08:17:26.956Z,22.90
2022-10-14T08:19:54.138Z,21.70
2022-10-14T08:22:20.943Z,20.40
2022-10-14T08:24:50.033Z,19.83
2022-10-14T08:27:17.938Z,20.00
2022-10-14T08:29:44.430Z,19.70
2022-10-14T08:32:10.928Z,19.37
2022-10-14T08:34:37.470Z,19.63
2022-10-14T08:37:04.017Z,19.70
2022-10-14T08:39:30.577Z,18.03
2022-10-14T08:42:19.273Z,17.83
2022-10-14T08:44:53.341Z,18.00
2022-10-14T08:47:35.318Z,18.07
2022-10-14T08:50:07.474Z,18.07
2022-10-14T08:52:58.998Z,17.30
2022-10-14T08:55:43.373Z,16.00
2022-10-14T08:58:31.758Z,16.90
2022-10-14T09:01:04.257Z,17.37
2022-10-14T09:03:34.707Z,17.40
2022-10-14T09:06:05.691Z,17.13
2022-10-14T09:08:45.336Z,19.67
2022-10-14T09:11:18.414Z,17.90
2022-10-14T09:13:48.670Z,18.63
2022-10-14T09:16:49.257Z,18.63
2022-10-14T09:19:53.702Z,18.70
2022-10-14T09:22:20.808Z,18.40
2022-10-14T09:24:48.451Z,17.40
2022-10-14T09:27:22.091Z,20.20
2022-10-14T09:30:00.415Z,17.73
2022-10-14T09:32:34.606Z,18.60
2022-10-14T09:35:02.685Z,18.87
2022-10-14T09:37:34.471Z,19.40
2022-10-14T09:40:08.637Z,18.60
2022-10-14T09:43:02.981Z,20.20
2022-10-14T09:45:46.074Z,19.50
2022-10-14T09:48:18.017Z,16.80
2022-10-14T09:50:51.641Z,18.57
2022-10-14T09:53:31.575Z,17.10
2022-10-14T09:56:01.254Z,17.70
2022-10-14T09:58:53.560Z,16.50
2022-10-14T10:01:22.502Z,18.80
2022-10-14T10:03:50.653Z,17.33
2022-10-14T10:06:21.146Z,17.80
2022-10-14T10:08:53.539Z,18.53
2022-10-14T10:11:33.677Z,18.57
2022-10-14T10:14:21.224Z,19.33
2022-10-14T10:19:29.694Z,16.80
2022-10-14T10:22:16.925Z,18.20
2022-10-14T10:24:45.022Z,17.60
2022-10-14T10:27:29.275Z,17.67
2022-10-14T10:29:56.163Z,19.47
2022-10-14T10:32:42.429Z,19.73
2022-10-14T10:35:48.002Z,19.60
2022-10-14T10:38:53.090Z,20.47
2022-10-14T10:41:44.306Z,20.80
2022-10-14T10:44:19.698Z,20.17
2022-10-14T10:46:52.269Z,21.07
2022-10-14T10:49:50.378Z,20.30
2022-10-14T10:52:41.068Z,20.77
2022-10-14T10:55:26.081Z,21.70
2022-10-14T10:58:27.865Z,18.97
2022-10-14T11:01:13.337Z,18.87
2022-10-14T11:04:21.402Z,16.90
2022-10-14T11:07:25.348Z,20.40
2022-10-14T11:10:22.405Z,19.40
2022-10-14T11:13:36.340Z,16.90
2022-10-14T11:16:07.519Z,17.40
2022-10-14T11:18:56.380Z,18.33
2022-10-14T11:21:35.336Z,15.57
2022-10-14T11:24:32.834Z,16.23
2022-10-14T11:27:14.417Z,15.07
2022-10-14T11:30:10.276Z,14.30
2022-10-14T11:32:51.505Z,14.10
2022-10-14T11:35:24.972Z,14.47
2022-10-14T11:38:10.974Z,13.40
2022-10-14T11:40:59.339Z,12.77
2022-10-14T11:43:43.954Z,12.60
2022-10-14T11:46:14.529Z,9.73
2022-10-14T11:49:01.487Z,11.60
2022-10-14T11:51:36.360Z,10.13
2022-10-14T11:54:14.869Z,9.33
2022-10-14T11:56:46.460Z,9.77
2022-10-14T11:59:37.777Z,8.97
2022-10-14T12:02:17.846Z,8.70
2022-10-14T12:04:49.806Z,8.57
2022-10-14T12:07:26.896Z,8.07
2022-10-14T12:10:02.591Z,9.30
2022-10-14T12:12:30.636Z,8.37
2022-10-14T12:15:05.797Z,8.23
2022-10-14T12:17:38.650Z,9.40
2022-10-14T12:20:14.256Z,8.97
2022-10-14T12:22:41.226Z,9.00
2022-10-14T12:25:17.590Z,8.30
2022-10-14T12:27:44.643Z,9.03
2022-10-14T12:30:34.897Z,9.07
2022-10-14T12:33:05.773Z,7.93
2022-10-14T12:35:52.775Z,8.70
2022-10-14T12:38:21.322Z,8.20
2022-10-14T12:40:49.157Z,8.47
2022-10-14T12:43:21.493Z,7.80
2022-10-14T12:46:01.705Z,8.10
2022-10-14T12:48:36.014Z,8.73
2022-10-14T12:51:21.912Z,8.87
2022-10-14T12:53:54.259Z,8.90
2022-10-14T12:56:33.302Z,8.80
2022-10-14T12:59:02.759Z,8.10
2022-10-14T13:01:33.774Z,8.30
2022-10-14T13:04:07.340Z,6.90
2022-10-14T13:06:42.269Z,6.93
2022-10-14T13:09:11.603Z,5.90
2022-10-14T13:11:53.485Z,6.20
2022-10-14T13:14:27.355Z,6.33
2022-10-14T13:17:02.607Z,5.90
2022-10-14T13:19:35.088Z,5.73
2022-10-14T13:22:22.808Z,5.60
2022-10-14T13:24:49.351Z,5.87
2022-10-14T13:27:30.024Z,8.40
2022-10-14T13:30:02.692Z,7.87
2022-10-14T13:32:43.840Z,7.50
2022-10-14T13:35:22.684Z,7.90
2022-10-14T13:38:01.983Z,8.50
2022-10-14T13:40:34.824Z,6.77
2022-10-14T13:43:08.496Z,8.30
2022-10-14T13:45:42.187Z,8.00
2022-10-14T13:48:19.805Z,7.80
2022-10-14T13:50:50.291Z,5.80
2022-10-14T13:53:19.266Z,5.10
2022-10-14T13:55:54.509Z,6.00
2022-10-14T13:58:23.695Z,5.73
2022-10-14T14:00:59.230Z,7.07
2022-10-14T14:03:30.918Z,6.80
2022-10-14T14:05:59.143Z,5.80
2022-10-14T14:08:39.897Z,4.10
2022-10-14T14:11:16.693Z,4.20
2022-10-14T14:13:53.396Z,3.67
2022-10-14T14:19:38.020Z,3.60
2022-10-14T14:22:30.464Z,4.80
2022-10-14T14:25:34.051Z,3.83
2022-10-14T14:28:13.874Z,3.50
2022-10-14T14:30:50.673Z,3.33
2022-10-14T14:33:35.560Z,2.60
2022-10-14T14:36:04.425Z,3.10
2022-10-14T14:38:34.956Z,3.37
2022-10-14T14:41:16.603Z,3.03
2022-10-14T14:43:53.306Z,3.40
2022-10-14T14:46:34.680Z,2.37
2022-10-14T14:49:02.665Z,3.13
2022-10-14T14:51:35.491Z,2.90
2022-10-14T14:54:02.434Z,2.63
2022-10-14T14:56:43.678Z,3.00
2022-10-14T14:59:19.772Z,3.20
2022-10-14T15:01:46.426Z,3.57
2022-10-14T15:04:25.267Z,3.00
2022-10-14T15:06:59.294Z,2.20
2022-10-14T15:10:05.838Z,2.43
2022-10-14T15:12:39.233Z,2.77
2022-10-14T15:15:26.718Z,1.70
2022-10-14T15:18:07.518Z,1.73
2022-10-14T15:20:36.759Z,2.10
2022-10-14T15:23:42.669Z,1.90
2022-10-14T15:26:28.010Z,1.80
2022-10-14T15:32:12.903Z,1.80
2022-10-14T15:34:40.431Z,4.30
2022-10-14T15:37:12.981Z,2.40
2022-10-14T15:39:39.515Z,2.90
2022-10-14T15:42:11.903Z,2.03
2022-10-14T15:44:38.605Z,2.53
2022-10-14T15:47:21.177Z,2.07
2022-10-14T15:49:47.846Z,1.93
2022-10-14T15:52:16.525Z,3.40
2022-10-14T15:54:45.737Z,3.23
2022-10-14T15:57:16.670Z,3.57
2022-10-14T15:59:47.707Z,3.70
2022-10-14T16:02:27.304Z,3.23
2022-10-14T16:05:18.831Z,2.90
2022-10-14T16:07:41.218Z,2.80
2022-10-14T16:10:11.430Z,2.40
2022-10-14T16:12:38.014Z,2.87
2022-10-14T16:15:19.588Z,2.90
2022-10-14T16:17:48.769Z,2.80
2022-10-14T16:20:18.500Z,2.70
2022-10-14T16:22:45.066Z,2.80
2022-10-14T16:25:20.043Z,2.80
2022-10-14T16:27:46.623Z,2.67
2022-10-14T16:30:13.706Z,2.83
2022-10-14T16:32:40.319Z,2.60
2022-10-14T16:35:09.424Z,3.40
2022-10-14T16:37:39.052Z,2.60
2022-10-14T16:40:06.925Z,2.90
2022-10-14T16:42:33.477Z,3.77
2022-10-14T16:45:00.392Z,6.10
2022-10-14T16:47:28.182Z,9.17
2022-10-14T16:49:54.993Z,5.37
2022-10-14T16:52:21.928Z,4.00
2022-10-14T16:54:48.833Z,3.27
2022-10-14T16:57:15.618Z,3.10
2022-10-14T16:59:42.238Z,3.93
2022-10-14T17:02:14.700Z,3.70
2022-10-14T17:04:42.096Z,3.63
2022-10-14T17:07:09.987Z,4.00
2022-10-14T17:09:36.949Z,3.27
2022-10-14T17:12:08.035Z,2.90
2022-10-14T17:14:37.839Z,3.63
2022-10-14T17:17:04.425Z,3.47
2022-10-14T17:19:31.111Z,3.37
2022-10-14T17:21:57.662Z,3.13
2022-10-14T17:24:24.298Z,2.20
2022-10-14T17:26:53.051Z,2.40
2022-10-14T17:29:20.727Z,2.50
2022-10-14T17:31:49.861Z,2.17
2022-10-14T17:34:16.506Z,2.30
2022-10-14T17:36:43.081Z,3.17
2022-10-14T17:39:16.408Z,3.10
2022-10-14T17:41:48.008Z,4.37
2022-10-14T17:44:14.675Z,3.30
2022-10-14T17:46:41.329Z,5.13
2022-10-14T17:49:10.804Z,5.33
2022-10-14T17:51:38.233Z,6.37
2022-10-14T17:54:07.582Z,3.23
2022-10-14T17:56:36.444Z,4.20
2022-10-14T17:59:10.364Z,7.50
2022-10-14T18:01:37.908Z,13.17
2022-10-14T18:04:17.328Z,6.83
2022-10-14T18:06:45.256Z,5.07
2022-10-14T18:09:12.505Z,3.33
2022-10-14T18:12:07.781Z,3.83
2022-10-14T18:14:30.071Z,3.47
2022-10-14T18:16:56.647Z,3.10
2022-10-14T18:19:23.208Z,3.63
2022-10-14T18:21:51.532Z,3.50
2022-10-14T18:24:18.134Z,4.10
2022-10-14T18:26:44.675Z,5.50
2022-10-14T18:29:11.274Z,5.43
2022-10-14T18:31:39.222Z,4.40
2022-10-14T18:34:07.693Z,5.00
2022-10-14T18:36:34.329Z,4.70
2022-10-14T18:39:04.354Z,4.63
2022-10-14T18:41:31.162Z,4.37
2022-10-14T18:43:58.233Z,5.23
2022-10-14T18:46:27.499Z,4.33
2022-10-14T18:48:55.742Z,4.10
2022-10-14T18:51:28.924Z,4.00
2022-10-14T18:54:01.854Z,6.23
2022-10-14T18:56:31.677Z,5.70
2022-10-14T18:59:01.545Z,5.80
2022-10-14T19:01:29.330Z,5.00
2022-10-14T19:03:56.552Z,4.90
2022-10-14T19:06:23.630Z,4.60
2022-10-14T19:08:50.992Z,4.60
2022-10-14T19:11:22.613Z,5.03
2022-10-14T19:13:51.875Z,4.87
2022-10-14T19:16:19.622Z,4.13
2022-10-14T19:18:46.840Z,3.30
2022-10-14T19:21:15.869Z,4.57
2022-10-14T19:23:43.732Z,4.50
2022-10-14T19:26:14.413Z,5.40
2022-10-14T19:28:41.918Z,4.03
2022-10-14T19:31:14.783Z,4.80
2022-10-14T19:33:44.034Z,5.43
2022-10-14T19:36:17.381Z,6.20
2022-10-14T19:38:51.274Z,5.40
2022-10-14T19:41:18.817Z,5.20
2022-10-14T19:43:45.690Z,6.00
2022-10-14T19:46:13.942Z,5.77
2022-10-14T19:48:41.018Z,5.23
2022-10-14T19:51:09.995Z,5.50
2022-10-14T19:53:38.482Z,4.83
2022-10-14T19:56:10.754Z,6.10
2022-10-14T19:58:40.928Z,4.80
2022-10-14T20:01:17.545Z,5.77
2022-10-14T20:03:44.464Z,6.63
2022-10-14T20:06:12.785Z,5.90
2022-10-14T20:08:40.034Z,5.70
2022-10-14T20:11:08.971Z,6.00
2022-10-14T20:13:37.530Z,5.70
2022-10-14T20:16:06.314Z,6.10
2022-10-14T20:18:33.193Z,6.60
2022-10-14T20:21:05.240Z,6.23
2022-10-14T20:23:34.998Z,6.10
2022-10-14T20:26:03.908Z,7.03
2022-10-14T20:28:30.611Z,6.40
2022-10-14T20:30:57.497Z,6.77
2022-10-14T20:33:24.618Z,7.23
2022-10-14T20:36:12.012Z,7.97
2022-10-14T20:38:39.229Z,8.77
2022-10-14T20:41:14.159Z,7.33
2022-10-14T20:43:41.912Z,6.70
2022-10-14T20:46:08.941Z,8.00
2022-10-14T20:48:37.298Z,8.23
2022-10-14T20:51:09.677Z,7.93
2022-10-14T20:53:36.483Z,7.53
2022-10-14T20:56:08.430Z,6.83
2022-10-14T20:58:35.386Z,7.03
2022-10-14T21:01:07.627Z,8.03
2022-10-14T21:03:34.540Z,7.90
2022-10-14T21:06:03.194Z,8.33
2022-10-14T21:08:30.067Z,9.37
2022-10-14T21:11:01.114Z,8.13
2022-10-14T21:13:28.735Z,8.20
2022-10-14T21:15:56.330Z,7.57
2022-10-14T21:18:23.041Z,7.93
2022-10-14T21:20:50.372Z,9.47
2022-10-14T21:23:17.802Z,8.50
2022-10-14T21:25:44.751Z,8.73
2022-10-14T21:28:11.318Z,8.47
2022-10-14T21:30:41.474Z,9.33
2022-10-14T21:33:07.971Z,8.10
2022-10-14T21:35:34.531Z,7.87
2022-10-14T21:38:01.115Z,8.40
2022-10-14T21:40:27.653Z,7.90
2022-10-14T21:42:54.227Z,8.30
2022-10-14T21:45:21.020Z,8.40
2022-10-14T21:47:47.632Z,8.70
2022-10-14T21:50:14.302Z,7.90
2022-10-14T21:52:41.419Z,8.70
2022-10-14T21:55:08.442Z,7.60
2022-10-14T21:57:35.001Z,8.87
2022-10-14T22:00:01.585Z,8.30
2022-10-14T22:02:28.148Z,7.90
2022-10-14T22:04:54.678Z,7.73
2022-10-14T22:07:21.438Z,7.97
2022-10-14T22:09:48.589Z,10.20
2022-10-14T22:12:16.577Z,8.30
2022-10-14T22:14:43.203Z,8.70
2022-10-14T22:17:09.848Z,8.37
2022-10-14T22:19:36.377Z,6.97
2022-10-14T22:22:03.991Z,7.40
2022-10-14T22:24:31.311Z,7.30
2022-10-14T22:26:57.826Z,8.83
2022-10-14T22:29:25.452Z,8.23
2022-10-14T22:31:51.991Z,7.60
2022-10-14T22:34:18.570Z,7.77
2022-10-14T22:36:45.552Z,8.67
2022-10-14T22:39:16.316Z,8.47
2022-10-14T22:41:42.869Z,8.27
2022-10-14T22:44:10.083Z,8.23
2022-10-14T22:46:38.172Z,9.10
2022-10-14T22:49:05.221Z,8.87
2022-10-14T22:51:35.461Z,9.67
2022-10-14T22:54:02.650Z,10.10
2022-10-14T22:56:30.682Z,9.80
2022-10-14T22:59:09.513Z,10.60
2022-10-14T23:01:36.827Z,10.10
2022-10-14T23:04:04.344Z,10.77
2022-10-14T23:06:31.838Z,9.23
2022-10-14T23:09:00.458Z,10.80
2022-10-14T23:11:28.483Z,12.00
2022-10-14T23:13:55.624Z,11.90
2022-10-14T23:16:24.900Z,11.80
2022-10-14T23:18:52.556Z,11.57
2022-10-14T23:21:27.914Z,13.60
2022-10-14T23:23:57.085Z,13.00
2022-10-14T23:26:26.475Z,12.20
2022-10-14T23:28:55.431Z,13.67
2022-10-14T23:31:24.961Z,13.17
2022-10-14T23:33:52.375Z,14.20
2022-10-14T23:36:21.510Z,13.87
2022-10-14T23:38:48.781Z,13.73
2022-10-14T23:41:15.515Z,14.57
2022-10-14T23:43:42.854Z,14.70
2022-10-14T23:46:09.913Z,15.00
2022-10-14T23:48:37.096Z,14.47
2022-10-14T23:51:04.245Z,15.40
2022-10-14T23:53:31.331Z,15.30
2022-10-14T23:55:58.172Z,15.10
2022-10-14T23:58:28.604Z,15.90
